Time;durP1;ratioP1;P1;durP2;ratioP2;P2;SDS_P1;SDS_P2;PMS_P1;PMS_P2;Temp;Humidity;BMP_temperature;BMP_pressure;BME280_temperature;BME280_humidity;BME280_pressure;Samples;Min_cycle;Max_cycle;Signal;HPM_P1;HPM_P2
2023/11/19 00:01:09;;;;;;;26.50;16.20;;;;;;;;;;104093;1289;546008;-73
2023/11/19 00:04:47;;;;;;;27.40;17.30;;;;;;;;;;103893;1293;544810;-72
2023/11/19 00:08:24;;;;;;;29.50;18.30;;;;;;;;;;104623;1295;545793;-75
2023/11/19 00:11:57;;;;;;;30.40;19.20;;;;;;;;;;104161;1286;544913;-71
2023/11/19 00:15:39;;;;;;;32.70;20.70;;;;;;;;;;103768;1291;545413;-72
2023/11/19 00:19:16;;;;;;;32.00;19.00;;;;;;;;;;103760;1298;546281;-73
2023/11/19 00:22:53;;;;;;;29.60;18.00;;;;;;;;;;103711;1292;545471;-74
2023/11/19 00:26:31;;;;;;;27.60;17.50;;;;;;;;;;103754;1291;545748;-71
2023/11/19 00:30:09;;;;;;;29.90;19.10;;;;;;;;;;103930;1290;545034;-71
2023/11/19 00:33:46;;;;;;;29.10;18.70;;;;;;;;;;103756;1291;544958;-73
2023/11/19 00:37:23;;;;;;;29.80;17.10;;;;;;;;;;103761;1294;544694;-74
2023/11/19 00:40:57;;;;;;;28.30;16.70;;;;;;;;;;103803;1295;545760;-74
2023/11/19 00:44:38;;;;;;;26.60;16.40;;;;;;;;;;103774;1290;544975;-75
2023/11/19 00:48:16;;;;;;;26.60;17.70;;;;;;;;;;103762;1289;545339;-74
2023/11/19 00:51:53;;;;;;;29.40;19.20;;;;;;;;;;103652;1294;544883;-73
2023/11/19 00:55:31;;;;;;;29.60;20.50;;;;;;;;;;103521;1294;544922;-71
2023/11/19 00:59:08;;;;;;;31.30;20.20;;;;;;;;;;103869;1293;545008;-71
2023/11/19 01:02:46;;;;;;;31.00;20.30;;;;;;;;;;103768;1291;544928;-73
2023/11/19 01:06:27;;;;;;;28.90;20.30;;;;;;;;;;103798;1291;545401;-72
2023/11/19 01:10:00;;;;;;;32.30;21.30;;;;;;;;;;103537;1295;544665;-71
2023/11/19 01:13:38;;;;;;;31.30;21.40;;;;;;;;;;103546;1295;545030;-72
2023/11/19 01:17:16;;;;;;;28.70;18.80;;;;;;;;;;103461;1297;546304;-71
2023/11/19 01:20:55;;;;;;;26.60;16.80;;;;;;;;;;103889;1292;544980;-72
2023/11/19 01:24:31;;;;;;;25.00;16.00;;;;;;;;;;103717;1291;545776;-72
2023/11/19 01:28:08;;;;;;;24.40;15.90;;;;;;;;;;104479;1293;544776;-72
2023/11/19 01:31:48;;;;;;;22.80;15.90;;;;;;;;;;103793;1294;544848;-73
2023/11/19 01:35:23;;;;;;;21.20;14.40;;;;;;;;;;103856;1289;544845;-73
2023/11/19 01:39:00;;;;;;;18.50;12.30;;;;;;;;;;103896;1292;545013;-72
2023/11/19 01:42:38;;;;;;;18.20;12.20;;;;;;;;;;104117;1289;545476;-71
2023/11/19 01:46:15;;;;;;;16.70;11.60;;;;;;;;;;104664;1282;545319;-72
2023/11/19 01:49:53;;;;;;;18.10;12.40;;;;;;;;;;103739;1293;545336;-72
2023/11/19 01:53:31;;;;;;;16.50;11.60;;;;;;;;;;104272;1285;546287;-71
2023/11/19 01:57:09;;;;;;;15.80;10.90;;;;;;;;;;103549;1298;545096;-72
2023/11/19 02:00:46;;;;;;;15.80;10.60;;;;;;;;;;104241;1289;544968;-71
2023/11/19 02:04:23;;;;;;;16.40;11.20;;;;;;;;;;104089;1286;544810;-72
2023/11/19 02:07:56;;;;;;;17.10;12.30;;;;;;;;;;103792;1292;544890;-72
2023/11/19 02:11:41;;;;;;;16.30;11.20;;;;;;;;;;103881;1291;545040;-71
2023/11/19 02:15:15;;;;;;;18.70;11.50;;;;;;;;;;103793;1288;545215;-72
2023/11/19 02:18:52;;;;;;;15.50;10.70;;;;;;;;;;103812;1291;545598;-72
2023/11/19 02:22:30;;;;;;;15.80;10.80;;;;;;;;;;103783;1288;545123;-72
2023/11/19 02:26:26;;;;;;;15.60;11.40;;;;;;;;;;103673;1291;544791;-71
2023/11/19 02:29:42;;;;;;;14.60;10.30;;;;;;;;;;104028;1289;545051;-72
2023/11/19 02:33:22;;;;;;;13.80;9.50;;;;;;;;;;103794;1292;544797;-72
2023/11/19 02:37:00;;;;;;;14.00;9.10;;;;;;;;;;103775;1292;544946;-73
2023/11/19 02:40:40;;;;;;;13.00;8.80;;;;;;;;;;103767;1291;546211;-72
2023/11/19 02:44:15;;;;;;;14.90;10.10;;;;;;;;;;103830;1289;545096;-70
2023/11/19 02:47:53;;;;;;;14.20;9.50;;;;;;;;;;103758;1302;544966;-73
2023/11/19 02:51:30;;;;;;;13.00;8.60;;;;;;;;;;103767;1291;544966;-71
2023/11/19 02:55:12;;;;;;;12.80;8.80;;;;;;;;;;103844;1291;544944;-71
2023/11/19 02:58:46;;;;;;;12.30;8.60;;;;;;;;;;103830;1289;544987;-72
2023/11/19 03:02:24;;;;;;;13.00;8.60;;;;;;;;;;103763;1292;545010;-73
2023/11/19 03:06:04;;;;;;;10.50;7.00;;;;;;;;;;103792;1290;545232;-71
2023/11/19 03:09:43;;;;;;;9.60;5.80;;;;;;;;;;103757;1289;545482;-74
2023/11/19 03:13:17;;;;;;;10.30;6.00;;;;;;;;;;104008;1289;544799;-73
2023/11/19 03:16:52;;;;;;;10.40;6.40;;;;;;;;;;104079;1288;544990;-73
2023/11/19 03:20:27;;;;;;;10.40;6.50;;;;;;;;;;103804;1292;545913;-73
2023/11/19 03:24:08;;;;;;;11.80;6.60;;;;;;;;;;103819;1290;544905;-72
2023/11/19 03:27:43;;;;;;;10.40;5.90;;;;;;;;;;103823;1294;544950;-70
2023/11/19 03:31:22;;;;;;;9.00;5.90;;;;;;;;;;103866;1292;544965;-72
2023/11/19 03:34:59;;;;;;;13.50;8.00;;;;;;;;;;103702;1291;544954;-73
2023/11/19 03:38:36;;;;;;;12.00;7.90;;;;;;;;;;103809;1292;545047;-73
2023/11/19 03:42:19;;;;;;;12.30;7.70;;;;;;;;;;103506;1295;544833;-72
2023/11/19 03:45:52;;;;;;;11.60;7.10;;;;;;;;;;103799;1292;545631;-72
2023/11/19 03:49:29;;;;;;;11.70;8.00;;;;;;;;;;103833;1292;545629;-72
2023/11/19 03:53:06;;;;;;;12.10;7.20;;;;;;;;;;103820;1289;544952;-72
2023/11/19 03:56:44;;;;;;;12.00;6.90;;;;;;;;;;103851;1292;545373;-72
2023/11/19 04:00:24;;;;;;;10.40;6.50;;;;;;;;;;103901;1287;544894;-71
2023/11/19 04:03:59;;;;;;;10.80;6.20;;;;;;;;;;103726;1289;545169;-72
2023/11/19 04:07:37;;;;;;;11.10;6.90;;;;;;;;;;103788;1289;544834;-72
2023/11/19 04:11:14;;;;;;;12.10;8.20;;;;;;;;;;103606;1295;544982;-73
2023/11/19 04:14:51;;;;;;;13.30;8.20;;;;;;;;;;103454;1295;544983;-73
2023/11/19 04:18:29;;;;;;;10.60;6.70;;;;;;;;;;104199;1285;544975;-71
2023/11/19 04:22:09;;;;;;;10.30;6.30;;;;;;;;;;103823;1292;545295;-71
2023/11/19 04:25:40;;;;;;;11.80;7.40;;;;;;;;;;103928;1292;545044;-73
2023/11/19 04:29:24;;;;;;;11.60;7.30;;;;;;;;;;103845;1289;545249;-72
2023/11/19 04:32:59;;;;;;;11.00;6.70;;;;;;;;;;103808;1292;545669;-70
2023/11/19 04:36:37;;;;;;;8.80;5.40;;;;;;;;;;103808;1293;544986;-72
2023/11/19 04:40:13;;;;;;;9.00;5.20;;;;;;;;;;103701;1289;545191;-71
2023/11/19 04:43:47;;;;;;;9.20;5.40;;;;;;;;;;103813;1293;544793;-71
2023/11/19 04:47:29;;;;;;;9.80;5.90;;;;;;;;;;103683;1297;545768;-68
2023/11/19 04:51:07;;;;;;;10.60;6.10;;;;;;;;;;103878;1289;545383;-71
2023/11/19 04:54:44;;;;;;;8.90;4.90;;;;;;;;;;104206;1285;544972;-71
2023/11/19 04:58:21;;;;;;;8.30;5.00;;;;;;;;;;103702;1289;545145;-70
2023/11/19 05:01:58;;;;;;;8.70;5.30;;;;;;;;;;103731;1291;544985;-69
2023/11/19 05:05:35;;;;;;;8.40;4.30;;;;;;;;;;103866;1292;544764;-70
2023/11/19 05:09:13;;;;;;;6.90;3.60;;;;;;;;;;103663;1291;545506;-71
2023/11/19 05:12:51;;;;;;;6.40;3.30;;;;;;;;;;103711;1289;546300;-70
2023/11/19 05:16:28;;;;;;;7.40;3.90;;;;;;;;;;104064;1288;544974;-71
2023/11/19 05:20:13;;;;;;;8.00;3.90;;;;;;;;;;103708;1292;545982;-71
2023/11/19 05:23:39;;;;;;;7.90;3.40;;;;;;;;;;103977;1288;545768;-74
2023/11/19 05:27:20;;;;;;;7.20;3.20;;;;;;;;;;103695;1289;545037;-71
2023/11/19 05:30:58;;;;;;;5.70;2.50;;;;;;;;;;103738;1292;544768;-71
2023/11/19 05:34:35;;;;;;;6.70;2.90;;;;;;;;;;103785;1291;544955;-71
2023/11/19 05:38:13;;;;;;;6.00;2.70;;;;;;;;;;103543;1291;546060;-71
2023/11/19 05:41:50;;;;;;;5.70;2.20;;;;;;;;;;103821;1291;544969;-72
2023/11/19 05:45:24;;;;;;;4.90;2.00;;;;;;;;;;104139;1286;545009;-71
2023/11/19 05:49:05;;;;;;;5.20;2.30;;;;;;;;;;103773;1289;545052;-71
2023/11/19 05:52:43;;;;;;;6.40;2.80;;;;;;;;;;103756;1289;544740;-72
2023/11/19 05:56:21;;;;;;;5.80;2.40;;;;;;;;;;103834;1292;544729;-72
2023/11/19 05:59:59;;;;;;;7.30;2.60;;;;;;;;;;103726;1289;545030;-71
2023/11/19 06:03:36;;;;;;;5.60;2.50;;;;;;;;;;103750;1291;546067;-71
2023/11/19 06:07:13;;;;;;;5.20;2.60;;;;;;;;;;103842;1289;546027;-70
2023/11/19 06:10:51;;;;;;;6.70;2.90;;;;;;;;;;103671;1292;544811;-71
2023/11/19 06:14:27;;;;;;;6.60;3.20;;;;;;;;;;103651;1291;545473;-70
2023/11/19 06:18:05;;;;;;;6.40;3.20;;;;;;;;;;103767;1290;544989;-70
2023/11/19 06:21:38;;;;;;;7.00;3.50;;;;;;;;;;103893;1289;545442;-71
2023/11/19 06:25:26;;;;;;;7.10;4.30;;;;;;;;;;103622;1305;547951;-70
2023/11/19 06:28:57;;;;;;;7.40;4.40;;;;;;;;;;103652;1289;545893;-70
2023/11/19 06:32:35;;;;;;;7.70;4.70;;;;;;;;;;103299;1295;544989;-72
2023/11/19 06:36:16;;;;;;;9.80;4.90;;;;;;;;;;103687;1291;545041;-70
2023/11/19 06:39:50;;;;;;;8.80;4.40;;;;;;;;;;104060;1286;545020;-70
2023/11/19 06:43:27;;;;;;;8.00;4.60;;;;;;;;;;103757;1289;545257;-71
2023/11/19 06:47:04;;;;;;;9.30;5.50;;;;;;;;;;104050;1289;544937;-71
2023/11/19 06:50:42;;;;;;;9.60;5.30;;;;;;;;;;103698;1295;545528;-70
2023/11/19 06:54:19;;;;;;;8.80;4.50;;;;;;;;;;103735;1290;545760;-69
2023/11/19 06:57:59;;;;;;;8.10;4.60;;;;;;;;;;103784;1289;545039;-71
2023/11/19 07:01:36;;;;;;;7.30;4.30;;;;;;;;;;103825;1291;544762;-70
2023/11/19 07:05:13;;;;;;;11.30;5.80;;;;;;;;;;103645;1291;544977;-71
2023/11/19 07:08:50;;;;;;;9.20;4.70;;;;;;;;;;103826;1295;545064;-71
2023/11/19 07:12:27;;;;;;;8.90;4.20;;;;;;;;;;103646;1290;545404;-71
2023/11/19 07:16:00;;;;;;;11.00;5.60;;;;;;;;;;104015;1292;545210;-71
2023/11/19 07:19:40;;;;;;;9.50;5.00;;;;;;;;;;103896;1292;544824;-69
2023/11/19 07:23:19;;;;;;;7.60;3.60;;;;;;;;;;103644;1292;544956;-70
2023/11/19 07:26:56;;;;;;;7.30;3.80;;;;;;;;;;103670;1289;544830;-71
2023/11/19 07:30:34;;;;;;;9.60;4.70;;;;;;;;;;103701;1292;544974;-70
2023/11/19 07:34:15;;;;;;;10.10;5.40;;;;;;;;;;103758;1290;547774;-70
2023/11/19 07:37:50;;;;;;;10.90;5.60;;;;;;;;;;103745;1288;544821;-70
2023/11/19 07:41:27;;;;;;;10.60;6.00;;;;;;;;;;103762;1289;545994;-70
2023/11/19 07:45:05;;;;;;;11.80;6.90;;;;;;;;;;104027;1291;545401;-71
2023/11/19 07:48:42;;;;;;;11.70;6.50;;;;;;;;;;103759;1295;545604;-72
2023/11/19 07:52:24;;;;;;;8.40;4.40;;;;;;;;;;103723;1290;544971;-70
2023/11/19 07:55:55;;;;;;;7.90;3.80;;;;;;;;;;104309;1287;545307;-71
2023/11/19 07:59:34;;;;;;;7.50;2.60;;;;;;;;;;103358;1295;545705;-70
2023/11/19 08:03:12;;;;;;;5.40;2.40;;;;;;;;;;103602;1292;544911;-71
2023/11/19 08:06:49;;;;;;;7.80;3.70;;;;;;;;;;103887;1292;545426;-71
2023/11/19 08:10:26;;;;;;;7.40;3.10;;;;;;;;;;103606;1291;545564;-70
2023/11/19 08:14:04;;;;;;;6.90;2.70;;;;;;;;;;103533;1295;544984;-71
2023/11/19 08:17:37;;;;;;;5.30;2.40;;;;;;;;;;103864;1290;544885;-70
2023/11/19 08:21:19;;;;;;;5.90;2.20;;;;;;;;;;103799;1289;544797;-70
2023/11/19 08:24:56;;;;;;;6.80;2.70;;;;;;;;;;103703;1289;544935;-70
2023/11/19 08:28:34;;;;;;;4.40;1.80;;;;;;;;;;103710;1295;545695;-69
2023/11/19 08:32:11;;;;;;;5.70;2.40;;;;;;;;;;103686;1290;545053;-69
2023/11/19 08:35:48;;;;;;;6.80;3.20;;;;;;;;;;103782;1291;545344;-68
2023/11/19 08:39:22;;;;;;;7.10;2.70;;;;;;;;;;103827;1292;544937;-69
2023/11/19 08:43:04;;;;;;;6.20;2.80;;;;;;;;;;103611;1289;545582;-70
2023/11/19 08:46:50;;;;;;;7.40;3.10;;;;;;;;;;103594;1292;545209;-70
2023/11/19 08:50:18;;;;;;;8.40;3.60;;;;;;;;;;103640;1291;545001;-68
2023/11/19 08:53:57;;;;;;;6.60;3.00;;;;;;;;;;103585;1290;545522;-69
2023/11/19 08:57:33;;;;;;;5.50;2.20;;;;;;;;;;103633;1292;545700;-69
2023/11/19 09:01:11;;;;;;;6.90;3.30;;;;;;;;;;103660;1291;544767;-70
2023/11/19 09:04:48;;;;;;;7.40;3.50;;;;;;;;;;103559;1289;546465;-71
2023/11/19 09:08:26;;;;;;;7.20;3.50;;;;;;;;;;103576;1292;544972;-72
2023/11/19 09:12:06;;;;;;;6.80;3.10;;;;;;;;;;103626;1289;544827;-70
2023/11/19 09:15:37;;;;;;;7.80;3.30;;;;;;;;;;103727;1292;544973;-70
2023/11/19 09:19:18;;;;;;;9.40;4.50;;;;;;;;;;103645;1291;544970;-70
2023/11/19 09:22:52;;;;;;;10.50;4.50;;;;;;;;;;103641;1292;544759;-71
2023/11/19 09:26:33;;;;;;;8.70;3.30;;;;;;;;;;104408;1284;545924;-69
2023/11/19 09:30:11;;;;;;;6.60;2.80;;;;;;;;;;103672;1292;544934;-70
2023/11/19 09:33:48;;;;;;;6.90;3.40;;;;;;;;;;103741;1290;544785;-70
2023/11/19 09:37:28;;;;;;;8.90;3.90;;;;;;;;;;103733;1292;544982;-70
2023/11/19 09:41:08;;;;;;;7.70;3.60;;;;;;;;;;103927;1289;544927;-72
2023/11/19 09:44:42;;;;;;;5.40;2.50;;;;;;;;;;103619;1295;545616;-70
2023/11/19 09:48:18;;;;;;;6.40;2.70;;;;;;;;;;103732;1289;546483;-71
2023/11/19 09:51:55;;;;;;;6.90;3.40;;;;;;;;;;103399;1295;545747;-72
2023/11/19 09:55:33;;;;;;;7.60;3.50;;;;;;;;;;103699;1289;544925;-73
2023/11/19 09:59:10;;;;;;;7.90;3.60;;;;;;;;;;103802;1292;544982;-70
2023/11/19 10:02:48;;;;;;;8.00;4.00;;;;;;;;;;103816;1290;544839;-71
2023/11/19 10:06:26;;;;;;;7.30;3.00;;;;;;;;;;103778;1292;544916;-70
2023/11/19 10:10:07;;;;;;;6.70;2.40;;;;;;;;;;104005;1289;545290;-69
2023/11/19 10:13:39;;;;;;;8.60;3.60;;;;;;;;;;104081;1288;545506;-70
2023/11/19 10:17:18;;;;;;;7.40;3.10;;;;;;;;;;103710;1289;544848;-69
2023/11/19 10:20:55;;;;;;;9.70;4.30;;;;;;;;;;103680;1292;544846;-70
2023/11/19 10:24:33;;;;;;;10.30;4.90;;;;;;;;;;103837;1295;545522;-73
2023/11/19 10:28:10;;;;;;;8.20;3.90;;;;;;;;;;104563;1282;545159;-71
2023/11/19 10:31:55;;;;;;;9.30;3.80;;;;;;;;;;103689;1291;544795;-70
2023/11/19 10:35:25;;;;;;;9.10;4.00;;;;;;;;;;104482;1283;545804;-70
2023/11/19 10:38:59;;;;;;;9.20;4.60;;;;;;;;;;103736;1292;544979;-70
2023/11/19 10:42:41;;;;;;;7.40;3.30;;;;;;;;;;103725;1291;546633;-71
2023/11/19 10:46:14;;;;;;;7.70;3.50;;;;;;;;;;103739;1289;545175;-71
2023/11/19 10:49:51;;;;;;;8.80;3.90;;;;;;;;;;103922;1287;544960;-70
2023/11/19 10:53:33;;;;;;;7.10;3.00;;;;;;;;;;103669;1289;545797;-70
2023/11/19 10:57:12;;;;;;;6.50;2.60;;;;;;;;;;103748;1289;545174;-71
2023/11/19 11:00:48;;;;;;;7.00;2.30;;;;;;;;;;104613;1281;545039;-72
2023/11/19 11:04:26;;;;;;;6.80;2.80;;;;;;;;;;103808;1294;545408;-72
2023/11/19 11:08:05;;;;;;;7.70;3.40;;;;;;;;;;103909;1290;544925;-72
2023/11/19 11:11:38;;;;;;;8.10;3.60;;;;;;;;;;103860;1288;544900;-74
2023/11/19 11:15:18;;;;;;;9.50;4.20;;;;;;;;;;103804;1292;545979;-71
2023/11/19 11:18:54;;;;;;;9.50;4.30;;;;;;;;;;103760;1291;546543;-74
2023/11/19 11:22:39;;;;;;;9.00;4.50;;;;;;;;;;103766;1289;545148;-72
2023/11/19 11:26:25;;;;;;;10.00;4.80;;;;;;;;;;103747;1301;545331;-71
2023/11/19 11:30:25;;;;;;;9.20;4.80;;;;;;;;;;103728;1295;549390;-77
2023/11/19 11:33:30;;;;;;;6.60;3.20;;;;;;;;;;103840;1291;544815;-72
2023/11/19 11:37:04;;;;;;;8.60;4.10;;;;;;;;;;103561;1294;545381;-72
2023/11/19 11:40:40;;;;;;;10.00;5.20;;;;;;;;;;103865;1292;545863;-71
2023/11/19 11:44:16;;;;;;;10.40;4.70;;;;;;;;;;103717;1291;544861;-72
2023/11/19 11:47:56;;;;;;;8.40;4.00;;;;;;;;;;103802;1289;545630;-71
2023/11/19 11:51:44;;;;;;;6.20;2.40;;;;;;;;;;103725;1291;544880;-74
2023/11/19 11:55:09;;;;;;;6.80;2.70;;;;;;;;;;103812;1292;545024;-72
2023/11/19 11:58:47;;;;;;;7.70;3.50;;;;;;;;;;104156;1286;544808;-73
2023/11/19 12:02:26;;;;;;;9.50;3.40;;;;;;;;;;103808;1289;545193;-73
2023/11/19 12:06:08;;;;;;;7.40;3.00;;;;;;;;;;103373;1308;547965;-73
2023/11/19 12:09:35;;;;;;;8.50;3.70;;;;;;;;;;103825;1292;544766;-72
2023/11/19 12:13:21;;;;;;;8.90;3.20;;;;;;;;;;103810;1293;545073;-72
2023/11/19 12:17:03;;;;;;;7.30;2.50;;;;;;;;;;103762;1296;545112;-73
2023/11/19 12:20:37;;;;;;;8.70;3.10;;;;;;;;;;103759;1292;545627;-72
2023/11/19 12:24:09;;;;;;;8.30;2.60;;;;;;;;;;103852;1292;545588;-73
2023/11/19 12:27:49;;;;;;;8.70;2.80;;;;;;;;;;104195;1289;544827;-72
2023/11/19 12:31:23;;;;;;;7.60;3.40;;;;;;;;;;103807;1292;545505;-71
2023/11/19 12:35:03;;;;;;;7.50;3.30;;;;;;;;;;103810;1290;545237;-71
2023/11/19 12:38:39;;;;;;;11.30;4.90;;;;;;;;;;103768;1292;544917;-73
2023/11/19 12:42:16;;;;;;;11.00;6.00;;;;;;;;;;103702;1296;545713;-72
2023/11/19 12:45:54;;;;;;;9.40;4.20;;;;;;;;;;103896;1295;545024;-73
2023/11/19 12:49:31;;;;;;;8.80;3.80;;;;;;;;;;104022;1289;545248;-72
2023/11/19 12:53:09;;;;;;;8.60;2.60;;;;;;;;;;103822;1288;544762;-71
2023/11/19 12:56:52;;;;;;;9.20;3.60;;;;;;;;;;104369;1290;544941;-72
2023/11/19 13:00:23;;;;;;;10.30;4.20;;;;;;;;;;103932;1288;545366;-74
2023/11/19 13:04:15;;;;;;;10.70;4.20;;;;;;;;;;103852;1291;545888;-72
2023/11/19 13:07:38;;;;;;;8.80;3.50;;;;;;;;;;103863;1291;544959;-72
2023/11/19 13:11:30;;;;;;;9.30;3.40;;;;;;;;;;103751;1291;544902;-72
2023/11/19 13:14:53;;;;;;;11.90;3.30;;;;;;;;;;103818;1289;544842;-72
2023/11/19 13:18:31;;;;;;;11.70;3.00;;;;;;;;;;103468;1298;544972;-73
2023/11/19 13:22:08;;;;;;;10.70;3.30;;;;;;;;;;103801;1290;545025;-73
2023/11/19 13:25:45;;;;;;;10.20;2.80;;;;;;;;;;103758;1291;544899;-71
2023/11/19 13:29:24;;;;;;;9.40;3.20;;;;;;;;;;104505;1285;545884;-72
2023/11/19 13:33:00;;;;;;;10.70;2.60;;;;;;;;;;103818;1290;545109;-72
2023/11/19 13:36:38;;;;;;;9.20;2.40;;;;;;;;;;103769;1292;545422;-72
2023/11/19 13:40:15;;;;;;;9.10;2.80;;;;;;;;;;103741;1291;545467;-72
2023/11/19 13:43:55;;;;;;;8.50;3.20;;;;;;;;;;103628;1295;545457;-73
2023/11/19 13:47:26;;;;;;;22.70;9.90;;;;;;;;;;103863;1289;544974;-72
2023/11/19 13:51:10;;;;;;;18.70;8.10;;;;;;;;;;104058;1292;544776;-73
2023/11/19 13:54:46;;;;;;;11.10;3.60;;;;;;;;;;103736;1296;545627;-73
2023/11/19 13:58:23;;;;;;;11.00;3.60;;;;;;;;;;103749;1292;545593;-71
2023/11/19 14:02:02;;;;;;;10.60;3.80;;;;;;;;;;103672;1292;545529;-71
2023/11/19 14:05:41;;;;;;;10.00;2.90;;;;;;;;;;103703;1291;545476;-72
2023/11/19 14:09:15;;;;;;;8.10;2.80;;;;;;;;;;103726;1298;545655;-72
2023/11/19 14:12:54;;;;;;;10.20;3.70;;;;;;;;;;103780;1292;545999;-73
2023/11/19 14:16:32;;;;;;;9.80;4.20;;;;;;;;;;103784;1292;545452;-72
2023/11/19 14:20:13;;;;;;;10.40;4.00;;;;;;;;;;104529;1286;544910;-72
2023/11/19 14:23:46;;;;;;;10.90;4.50;;;;;;;;;;103652;1291;545043;-72
2023/11/19 14:27:43;;;;;;;11.50;5.70;;;;;;;;;;103921;1291;548032;-72
2023/11/19 14:33:20;;;;;;;14.30;6.30;;;;;;;;;;104016;1289;545086;-72
2023/11/19 14:36:57;;;;;;;14.70;6.50;;;;;;;;;;104450;1285;545488;-72
2023/11/19 14:40:35;;;;;;;12.20;4.60;;;;;;;;;;103507;1292;544863;-72
2023/11/19 14:44:12;;;;;;;11.70;5.30;;;;;;;;;;103764;1291;545128;-72
2023/11/19 14:47:50;;;;;;;13.30;4.90;;;;;;;;;;103802;1293;545873;-74
2023/11/19 14:51:27;;;;;;;11.30;4.40;;;;;;;;;;103746;1290;546066;-72
2023/11/19 14:55:05;;;;;;;15.50;7.00;;;;;;;;;;103973;1288;544723;-72
2023/11/19 14:58:44;;;;;;;16.70;8.70;;;;;;;;;;104167;1289;545214;-72
2023/11/19 15:02:19;;;;;;;23.70;12.80;;;;;;;;;;104014;1291;545689;-72
2023/11/19 15:05:57;;;;;;;24.50;14.50;;;;;;;;;;104008;1295;545727;-73
2023/11/19 15:09:36;;;;;;;9.90;5.20;;;;;;;;;;103846;1292;545113;-72
2023/11/19 15:13:12;;;;;;;11.70;6.60;;;;;;;;;;103753;1292;544985;-72
2023/11/19 15:16:51;;;;;;;12.00;6.40;;;;;;;;;;104497;1286;545634;-72
2023/11/19 15:20:30;;;;;;;10.40;5.00;;;;;;;;;;103574;1294;544850;-71
2023/11/19 15:24:07;;;;;;;11.10;4.00;;;;;;;;;;103864;1302;545148;-73
2023/11/19 15:27:46;;;;;;;10.20;3.90;;;;;;;;;;103745;1292;545805;-71
2023/11/19 15:31:19;;;;;;;14.10;5.40;;;;;;;;;;103790;1291;545121;-72
2023/11/19 15:35:00;;;;;;;11.80;4.80;;;;;;;;;;103817;1292;544835;-72
2023/11/19 15:38:37;;;;;;;10.30;3.80;;;;;;;;;;103741;1291;545861;-72
2023/11/19 15:42:11;;;;;;;11.00;4.00;;;;;;;;;;103840;1291;544758;-72
2023/11/19 15:45:47;;;;;;;12.70;5.00;;;;;;;;;;103803;1295;544864;-73
2023/11/19 15:49:27;;;;;;;11.70;5.10;;;;;;;;;;103797;1289;544986;-72
2023/11/19 15:53:06;;;;;;;9.30;3.40;;;;;;;;;;103810;1290;545660;-74
2023/11/19 15:56:38;;;;;;;17.90;7.20;;;;;;;;;;103882;1289;545118;-73
2023/11/19 16:00:40;;;;;;;15.80;6.20;;;;;;;;;;104147;1289;548085;-72
2023/11/19 16:03:56;;;;;;;13.80;6.00;;;;;;;;;;103470;1294;545442;-71
2023/11/19 16:07:35;;;;;;;10.20;4.20;;;;;;;;;;103743;1289;545120;-73
2023/11/19 16:11:30;;;;;;;11.80;3.90;;;;;;;;;;103425;1295;547964;-71
2023/11/19 16:14:49;;;;;;;12.40;5.70;;;;;;;;;;103887;1288;544819;-72
2023/11/19 16:18:27;;;;;;;12.00;4.90;;;;;;;;;;103767;1292;545449;-71
2023/11/19 16:22:09;;;;;;;15.80;7.30;;;;;;;;;;103843;1288;544872;-72
2023/11/19 16:25:44;;;;;;;15.90;8.50;;;;;;;;;;103806;1292;545101;-73
2023/11/19 16:29:25;;;;;;;23.60;12.50;;;;;;;;;;103571;1293;548544;-71
2023/11/19 16:32:58;;;;;;;23.90;11.70;;;;;;;;;;103783;1291;544813;-73
2023/11/19 16:36:36;;;;;;;22.60;10.90;;;;;;;;;;103696;1295;545191;-71
2023/11/19 16:40:12;;;;;;;17.30;8.60;;;;;;;;;;104509;1282;544963;-73
2023/11/19 16:43:59;;;;;;;19.00;9.60;;;;;;;;;;103716;1289;547961;-74
2023/11/19 16:47:26;;;;;;;23.10;10.80;;;;;;;;;;103862;1292;544922;-72
2023/11/19 16:51:13;;;;;;;20.90;8.70;;;;;;;;;;103897;1289;545005;-72
2023/11/19 16:54:42;;;;;;;19.20;7.50;;;;;;;;;;103870;1289;546526;-72
2023/11/19 16:58:18;;;;;;;14.90;6.90;;;;;;;;;;103873;1292;544789;-73
2023/11/19 17:01:56;;;;;;;22.20;9.50;;;;;;;;;;104089;1288;544886;-72
2023/11/19 17:05:39;;;;;;;24.80;12.30;;;;;;;;;;103870;1288;547983;-72
2023/11/19 17:09:12;;;;;;;21.00;10.70;;;;;;;;;;103771;1291;544990;-73
2023/11/19 17:12:48;;;;;;;18.10;9.50;;;;;;;;;;103798;1289;545577;-72
2023/11/19 17:16:26;;;;;;;17.80;8.40;;;;;;;;;;104232;1283;544733;-73
2023/11/19 17:20:23;;;;;;;20.00;9.60;;;;;;;;;;103942;1289;548141;-72
2023/11/19 17:23:42;;;;;;;20.70;10.20;;;;;;;;;;104712;1290;544870;-71
2023/11/19 17:27:23;;;;;;;18.80;9.70;;;;;;;;;;103735;1292;547872;-72
2023/11/19 17:30:55;;;;;;;26.60;13.60;;;;;;;;;;104114;1289;545445;-73
2023/11/19 17:34:35;;;;;;;25.50;14.20;;;;;;;;;;103572;1295;545671;-71
2023/11/19 17:38:11;;;;;;;25.30;14.60;;;;;;;;;;104461;1285;546209;-71
2023/11/19 17:42:08;;;;;;;26.50;14.90;;;;;;;;;;103785;1292;545867;-71
2023/11/19 17:45:27;;;;;;;28.30;16.00;;;;;;;;;;103559;1295;546185;-72
2023/11/19 17:49:03;;;;;;;28.80;14.90;;;;;;;;;;103764;1294;544927;-72
2023/11/19 17:52:45;;;;;;;27.20;13.20;;;;;;;;;;103571;1295;545388;-72
2023/11/19 17:56:19;;;;;;;24.70;12.60;;;;;;;;;;103827;1292;545777;-73
2023/11/19 18:00:21;;;;;;;22.70;12.40;;;;;;;;;;103797;1292;547833;-75
2023/11/19 18:03:34;;;;;;;20.80;12.10;;;;;;;;;;104366;1285;545008;-71
2023/11/19 18:07:17;;;;;;;26.40;14.80;;;;;;;;;;103775;1291;545601;-71
2023/11/19 18:10:48;;;;;;;32.20;16.70;;;;;;;;;;103486;1305;545149;-72
2023/11/19 18:14:27;;;;;;;29.00;15.90;;;;;;;;;;104258;1285;544823;-71
2023/11/19 18:18:03;;;;;;;29.40;16.10;;;;;;;;;;103796;1292;545914;-72
2023/11/19 18:21:40;;;;;;;28.50;15.60;;;;;;;;;;103959;1295;544954;-72
2023/11/19 18:25:17;;;;;;;21.60;11.50;;;;;;;;;;103729;1290;544995;-73
2023/11/19 18:28:55;;;;;;;20.60;9.60;;;;;;;;;;103819;1289;544804;-73
2023/11/19 18:32:51;;;;;;;19.90;8.70;;;;;;;;;;104172;1289;547933;-73
2023/11/19 18:36:12;;;;;;;20.90;11.20;;;;;;;;;;103916;1292;545105;-70
2023/11/19 18:39:47;;;;;;;17.70;8.00;;;;;;;;;;103769;1289;544900;-71
2023/11/19 18:43:27;;;;;;;18.90;8.10;;;;;;;;;;103944;1290;544945;-71
2023/11/19 18:47:27;;;;;;;21.50;11.00;;;;;;;;;;103789;1293;549418;-72
2023/11/19 18:50:39;;;;;;;24.50;13.30;;;;;;;;;;103934;1291;545418;-73
2023/11/19 18:54:22;;;;;;;32.20;19.30;;;;;;;;;;103788;1292;545104;-71
2023/11/19 18:57:54;;;;;;;58.80;26.10;;;;;;;;;;104582;1283;545696;-73
2023/11/19 19:01:32;;;;;;;95.20;37.20;;;;;;;;;;103867;1303;544611;-72
2023/11/19 19:05:16;;;;;;;44.90;19.10;;;;;;;;;;103888;1292;548513;-72
2023/11/19 19:08:49;;;;;;;35.40;18.30;;;;;;;;;;103801;1291;544837;-73
2023/11/19 19:12:24;;;;;;;49.40;23.60;;;;;;;;;;103862;1294;544932;-72
2023/11/19 19:16:19;;;;;;;29.30;13.30;;;;;;;;;;103959;1292;544973;-73
2023/11/19 19:19:39;;;;;;;26.70;11.30;;;;;;;;;;103807;1292;544843;-73
2023/11/19 19:23:17;;;;;;;22.40;8.90;;;;;;;;;;103804;1292;545728;-71
2023/11/19 19:26:55;;;;;;;21.20;8.80;;;;;;;;;;103651;1292;545512;-72
2023/11/19 19:30:36;;;;;;;19.80;8.10;;;;;;;;;;103766;1291;546040;-72
2023/11/19 19:34:10;;;;;;;26.40;12.10;;;;;;;;;;103838;1291;544993;-72
2023/11/19 19:37:48;;;;;;;26.90;12.30;;;;;;;;;;103825;1290;545130;-72
2023/11/19 19:41:26;;;;;;;22.40;8.00;;;;;;;;;;103810;1289;545098;-73
2023/11/19 19:45:07;;;;;;;18.40;6.70;;;;;;;;;;103628;1291;545444;-72
2023/11/19 19:49:08;;;;;;;28.50;10.50;;;;;;;;;;104275;1289;546278;-72
2023/11/19 19:52:19;;;;;;;35.20;12.10;;;;;;;;;;104912;1288;544841;-72
2023/11/19 19:55:57;;;;;;;23.40;9.80;;;;;;;;;;103794;1289;545259;-72
2023/11/19 19:59:52;;;;;;;14.50;7.00;;;;;;;;;;104176;1294;547901;-73
2023/11/19 20:03:09;;;;;;;16.40;5.10;;;;;;;;;;104048;1292;545385;-72
2023/11/19 20:06:48;;;;;;;14.10;4.80;;;;;;;;;;103904;1292;545313;-72
2023/11/19 20:10:23;;;;;;;16.50;7.80;;;;;;;;;;103873;1291;544988;-72
2023/11/19 20:14:03;;;;;;;13.80;4.50;;;;;;;;;;103956;1289;544707;-72
2023/11/19 20:17:47;;;;;;;13.10;2.90;;;;;;;;;;104274;1283;547921;-72
2023/11/19 20:21:18;;;;;;;13.60;3.10;;;;;;;;;;103775;1292;544892;-73
2023/11/19 20:24:55;;;;;;;11.90;3.00;;;;;;;;;;103632;1294;544991;-70
2023/11/19 20:28:32;;;;;;;11.50;2.70;;;;;;;;;;103742;1291;544978;-73
2023/11/19 20:32:12;;;;;;;15.80;3.90;;;;;;;;;;103778;1295;545831;-71
2023/11/19 20:35:46;;;;;;;18.30;4.50;;;;;;;;;;103779;1290;544753;-72
2023/11/19 20:39:44;;;;;;;21.10;7.00;;;;;;;;;;103502;1298;548012;-71
2023/11/19 20:43:04;;;;;;;16.60;5.60;;;;;;;;;;103784;1290;545181;-72
2023/11/19 20:46:39;;;;;;;29.70;12.20;;;;;;;;;;103645;1295;545397;-72
2023/11/19 20:50:16;;;;;;;20.30;6.70;;;;;;;;;;103798;1290;545076;-73